x

Ilm3 - 27 Miles Se Of Wrightsville Beach, Nc (41037) Weather Station

9:08pm - Wed 19th Sep 2018 All times are EDT. -4 hours from GMT.

  • Wind
    9mph, 11mph gusts
  • Sea Temp 82°f
  • Air Temp 79°f
  • Sea Pressure 1015.1mb
  • Ilm3 - 27 Miles Se Of Wrightsville Beach, Nc
  • Ilm3 - 27 Miles Se Of Wrightsville Beach, Nc

More Historic Weather Station data

Upgrade to MSW Pro to gain access to the past 30 days of data for over 8000 Wavebouys and Weather Stations around the globe.

Join

Comparision Forecast

View Surf forecast
   
Wed 09/19 9:08pm 9 11 mph 1015.1mb 82f 79f
8:08pm 9 11 mph 1014.3mb 82f 80f
7:08pm 9 11 mph 1013.8mb 82f 80f
6:08pm 4 7 mph 1013.8mb 82f 81f
5:08pm 4 7 mph 1013.4mb 82f 81f
4:08pm 2 4 mph 1013.1mb 82f 81f
3:08pm 2 4 mph 1013.1mb 82f 81f
2:08pm 2 7 mph 1013.7mb 82f 79f
1:08pm 7 11 mph 1014.2mb 82f 78f
12:08pm 7 11 mph 1014.6mb 81f 78f
11:08am 9 16 mph 1014.6mb 81f 77f
10:08am 13 20 mph 1014.2mb 81f 76f
9:08am 13 18 mph 1013.7mb 81f 77f
8:08am 11 18 mph 1013.1mb 81f 77f
7:08am 11 16 mph 1012.5mb 81f 76f
6:08am 11 16 mph 1012.1mb 81f 76f
5:08am 9 11 mph 1011.5mb 81f 76f
4:08am 9 16 mph 1011mb 81f 76f
3:08am 11 16 mph 1011.1mb 81f 75f
2:08am 11 18 mph 1011.8mb 81f 74f
1:08am 11 18 mph 1013.5mb 81f 73f
12:08am 9 18 mph 1012.8mb 81f 73f
Tue 09/18 11:08pm 9 13 mph 1013mb 81f 73f
10:08pm 4 13 mph 1012.8mb 81f 70f
9:08pm 20 38 mph 1012.3mb 81f 73f
8:08pm 18 29 mph 1011.1mb 81f 76f
7:08pm 20 27 mph 1010.5mb 81f 76f
6:08pm 20 29 mph 1010.6mb 81f 76f
5:08pm 20 29 mph 1010.6mb 81f 76f
4:08pm 20 31 mph 1010.8mb 81f 77f
3:08pm 20 29 mph 1011.4mb 81f 77f
2:08pm 20 27 mph 1011.7mb 81f 78f
12:08pm 16 25 mph 1013.5mb 81f 76f
11:08am 18 27 mph 1013.6mb 81f 76f
10:08am 18 25 mph 1013.3mb 81f 76f
9:08am 20 29 mph 1014mb 81f 76f
8:08am 18 27 mph - 81f 76f
7:08am 18 27 mph - 81f 76f
6:08am 18 25 mph - 81f 76f
5:08am 18 29 mph - 81f 76f
4:08am 18 25 mph - 81f 76f
3:08am 18 25 mph - 81f 76f
2:08am 18 29 mph - 81f 76f
1:08am 16 22 mph - 81f 76f
12:08am 16 25 mph - 81f 76f
Mon 09/17 11:08pm 16 22 mph - 81f 76f
10:08pm 16 25 mph - 81f 76f
9:08pm 16 22 mph 1010mb 81f 76f
8:08pm 16 25 mph 1014.6mb 81f 76f
7:08pm 16 25 mph 1014.5mb 81f 76f
6:08pm 18 25 mph 1014.7mb 81f 76f
5:08pm 16 22 mph 1014.7mb 81f 76f
4:08pm 16 22 mph 1015mb 81f 76f
3:08pm 16 25 mph 1015.6mb 81f 75f
2:08pm 22 29 mph 1016.4mb 81f 77f
1:08pm 20 27 mph 1016.6mb 81f 77f
12:08pm 20 27 mph 1017.2mb 81f 77f
11:08am 20 29 mph 1017.3mb 81f 77f
10:08am 20 29 mph 1017.3mb 81f 76f
9:08am 22 31 mph 1017.2mb 81f 76f
8:08am 22 31 mph 1017.1mb 81f 76f
7:08am 20 27 mph 1016.6mb 81f 76f
6:08am 20 29 mph 1016.1mb 81f 76f
5:08am 20 29 mph 1016mb 81f 76f
4:08am 20 34 mph 1015.6mb 81f 76f
3:08am 22 29 mph 1015.9mb 81f 76f
2:08am 25 34 mph 1016.3mb 81f 76f
1:08am 25 34 mph 1016.1mb 81f 76f
12:08am 22 36 mph 1016.4mb 81f 75f
Sun 09/16 11:08pm 20 31 mph 1016.3mb 81f 75f
10:08pm 20 29 mph 1016.5mb 81f 76f
9:08pm 22 34 mph 1015.9mb 81f 73f
7:08pm 20 31 mph 1015.3mb 82f 75f
6:08pm 22 36 mph 1015.3mb 82f 74f
5:08pm 18 27 mph 1014.5mb 82f 75f
4:08pm 22 34 mph 1014.5mb 82f 76f
3:08pm 27 38 mph 1014.5mb 82f 75f
2:08pm 27 38 mph 1014.7mb 82f 76f
1:08pm 27 38 mph 1014.9mb 82f 76f
12:08pm 27 43 mph 1015.1mb 82f 76f
11:08am 27 38 mph 1015.1mb 82f 75f
10:08am 27 38 mph 1014.7mb 82f 74f
9:08am 31 47 mph 1013.2mb 82f 74f
8:08am 27 38 mph 1012.7mb 82f 75f
7:08am 27 38 mph 1012.2mb 82f 75f
6:08am 25 38 mph 1011.7mb 82f 75f
5:08am 25 36 mph 1011.2mb 82f 75f
4:08am 27 40 mph 1010.4mb 82f 74f
3:08am 27 43 mph 1010.8mb 82f 75f